createdAt,value
2022-09-04T00:14:58.954Z,11
2022-09-04T00:44:27.112Z,11
2022-09-04T01:13:53.267Z,12
2022-09-04T01:43:10.581Z,13
2022-09-04T02:12:40.200Z,11
2022-09-04T02:41:48.844Z,13
2022-09-04T03:11:10.718Z,14
2022-09-04T03:40:33.321Z,13
2022-09-04T04:09:49.153Z,14
2022-09-04T04:39:13.679Z,14
2022-09-04T05:08:26.362Z,14
2022-09-04T05:37:27.715Z,13
2022-09-04T06:06:51.340Z,14
2022-09-04T06:36:08.074Z,13
2022-09-04T07:05:31.881Z,14
2022-09-04T07:35:04.231Z,13
2022-09-04T08:04:31.904Z,11
2022-09-04T08:33:44.608Z,13
2022-09-04T09:03:00.827Z,11
2022-09-04T09:32:14.652Z,10
2022-09-04T10:01:36.795Z,8
2022-09-04T10:30:57.975Z,7
2022-09-04T11:00:09.400Z,6
2022-09-04T11:29:41.455Z,5
2022-09-04T11:59:21.997Z,7
2022-09-04T12:28:39.612Z,6
2022-09-04T12:58:02.805Z,6
2022-09-04T13:27:22.701Z,6
2022-09-04T13:56:40.919Z,6
2022-09-04T14:26:06.231Z,6
2022-09-04T14:55:18.490Z,6
2022-09-04T15:24:38.920Z,6
2022-09-04T15:53:56.542Z,7
2022-09-04T16:23:24.985Z,7
2022-09-04T16:52:36.678Z,6
2022-09-04T17:23:50.351Z,10
2022-09-04T17:50:51.698Z,9
2022-09-04T18:20:10.189Z,4
2022-09-04T18:50:26.839Z,7
2022-09-04T19:18:11.776Z,8
2022-09-04T19:47:35.337Z,8
2022-09-04T20:16:49.047Z,9
2022-09-04T20:47:27.935Z,9
2022-09-04T21:14:44.520Z,11
2022-09-04T21:43:19.805Z,9
2022-09-04T22:13:37.046Z,10
2022-09-04T22:41:30.207Z,10
2022-09-04T23:13:45.725Z,11
2022-09-04T23:39:43.803Z,11
